Time;durP1;ratioP1;P1;durP2;ratioP2;P2;SDS_P1;SDS_P2;PMS_P1;PMS_P2;Temp;Humidity;BMP_temperature;BMP_pressure;BME280_temperature;BME280_humidity;BME280_pressure;Samples;Min_cycle;Max_cycle;Signal;HPM_P1;HPM_P2
2021/10/27 00:04:57;;;;;;;;;;;;;;;15.90;52.83;101810.50;5053188;28;98890;-87
2021/10/27 00:07:26;;;;;;;;;;;;;;;16.06;52.60;101813.41;5020939;28;96453;-87
2021/10/27 00:09:56;;;;;;;;;;;;;;;15.99;52.97;101815.47;5037351;27;96619;-87
2021/10/27 00:12:30;;;;;;;;;;;;;;;16.00;52.84;101824.34;5038725;28;98284;-88
2021/10/27 00:14:57;;;;;;;;;;;;;;;16.01;52.82;101818.94;5044761;28;99262;-88
2021/10/27 00:17:24;;;;;;;;;;;;;;;15.48;53.76;101821.94;5047115;27;96513;-89
2021/10/27 00:19:50;;;;;;;;;;;;;;;15.94;53.12;101825.47;5042465;27;96664;-86
2021/10/27 00:22:18;;;;;;;;;;;;;;;15.86;53.04;101828.44;5039174;28;99627;-86
2021/10/27 00:24:46;;;;;;;;;;;;;;;15.95;53.19;101835.16;5045710;28;98095;-85
2021/10/27 00:27:13;;;;;;;;;;;;;;;16.21;52.38;101831.47;5035806;28;96993;-87
2021/10/27 00:29:46;;;;;;;;;;;;;;;16.00;52.80;101830.53;5036824;28;96181;-88
2021/10/27 00:32:17;;;;;;;;;;;;;;;16.00;53.03;101824.34;5033505;27;99540;-87
2021/10/27 00:34:56;;;;;;;;;;;;;;;16.13;52.78;101829.09;5017034;28;99105;-87
2021/10/27 00:37:23;;;;;;;;;;;;;;;15.82;53.13;101820.59;5029279;28;96562;-89
2021/10/27 00:39:55;;;;;;;;;;;;;;;15.92;53.31;101824.66;5019514;28;96827;-86
2021/10/27 00:42:22;;;;;;;;;;;;;;;15.86;53.33;101822.22;5047451;27;99803;-87
2021/10/27 00:47:29;;;;;;;;;;;;;;;15.91;53.38;101820.25;5031305;28;96576;-87
2021/10/27 00:52:38;;;;;;;;;;;;;;;15.94;53.37;101814.78;5037254;27;97368;-87
2021/10/27 00:55:07;;;;;;;;;;;;;;;15.84;53.53;101813.41;5038115;27;96681;-86
2021/10/27 00:57:38;;;;;;;;;;;;;;;15.94;53.40;101814.78;5037835;27;96182;-87
2021/10/27 01:00:07;;;;;;;;;;;;;;;15.93;53.68;101807.72;5038276;27;95984;-88
2021/10/27 01:02:35;;;;;;;;;;;;;;;15.89;53.14;101817.63;5020730;27;97475;-83
2021/10/27 01:05:02;;;;;;;;;;;;;;;15.85;53.58;101813.38;5032619;27;100268;-86
2021/10/27 01:07:29;;;;;;;;;;;;;;;16.06;53.51;101814.28;5043447;27;95925;-88
2021/10/27 01:12:38;;;;;;;;;;;;;;;15.95;53.58;101811.16;5036805;27;98977;-88
2021/10/27 01:15:05;;;;;;;;;;;;;;;16.08;53.26;101807.06;5037648;27;99960;-87
2021/10/27 01:17:33;;;;;;;;;;;;;;;15.93;53.64;101807.72;5047636;27;95976;-86
2021/10/27 01:20:01;;;;;;;;;;;;;;;15.90;53.40;101803.38;5048124;27;96030;-88
2021/10/27 01:22:36;;;;;;;;;;;;;;;15.79;53.76;101807.41;5026876;27;96971;-88
2021/10/27 01:25:07;;;;;;;;;;;;;;;16.06;53.04;101808.09;5038617;27;99268;-87
2021/10/27 01:27:42;;;;;;;;;;;;;;;15.97;53.38;101797.78;5049941;27;96532;-87
2021/10/27 01:30:15;;;;;;;;;;;;;;;15.94;53.25;101793.47;5036986;27;98337;-87
2021/10/27 01:32:42;;;;;;;;;;;;;;;15.94;53.52;101801.47;5053676;27;98885;-85
2021/10/27 01:35:10;;;;;;;;;;;;;;;15.75;53.96;101795.16;5040469;27;100448;-85
2021/10/27 01:37:37;;;;;;;;;;;;;;;15.90;53.38;101802.50;5045277;27;96035;-85
2021/10/27 01:40:05;;;;;;;;;;;;;;;15.77;53.82;101798.59;5040970;27;96606;-84
2021/10/27 01:42:31;;;;;;;;;;;;;;;15.73;54.13;101805.88;5057426;27;96610;-84
2021/10/27 01:45:00;;;;;;;;;;;;;;;15.91;53.60;101801.56;5048096;27;96273;-84
2021/10/27 01:47:27;;;;;;;;;;;;;;;16.06;52.86;101800.97;5044917;27;95928;-85
2021/10/27 01:49:56;;;;;;;;;;;;;;;15.97;53.47;101809.31;5021778;28;96537;-85
2021/10/27 01:52:24;;;;;;;;;;;;;;;15.98;53.38;101799.53;5037675;28;96600;-85
2021/10/27 01:54:50;;;;;;;;;;;;;;;15.84;53.77;101803.63;5047537;27;97713;-87
2021/10/27 01:57:17;;;;;;;;;;;;;;;15.86;53.69;101792.91;5053262;27;96899;-88
2021/10/27 01:59:45;;;;;;;;;;;;;;;15.84;53.65;101797.44;5036001;28;96762;-87
2021/10/27 02:02:13;;;;;;;;;;;;;;;15.65;54.03;101793.78;5043300;27;99346;-88
2021/10/27 02:04:41;;;;;;;;;;;;;;;15.74;54.04;101799.63;5022443;27;97965;-88
2021/10/27 02:07:09;;;;;;;;;;;;;;;15.77;53.83;101795.94;5053189;27;95923;-88
2021/10/27 02:09:38;;;;;;;;;;;;;;;15.69;54.00;101792.72;5022989;27;96080;-88
2021/10/27 02:12:10;;;;;;;;;;;;;;;15.81;54.10;101794.91;5031324;27;96988;-88
2021/10/27 02:14:38;;;;;;;;;;;;;;;15.81;53.95;101789.56;5026126;28;99214;-88
2021/10/27 02:17:10;;;;;;;;;;;;;;;15.86;53.56;101795.56;5040304;28;96724;-87
2021/10/27 02:19:41;;;;;;;;;;;;;;;15.87;53.76;101794.66;5028308;28;96665;-87
2021/10/27 02:22:10;;;;;;;;;;;;;;;15.79;53.93;101784.28;5032376;28;97804;-86
2021/10/27 02:24:38;;;;;;;;;;;;;;;15.91;53.84;101788.25;5033553;28;101129;-87
2021/10/27 02:27:07;;;;;;;;;;;;;;;16.28;52.51;101790.22;5052356;28;96970;-88
2021/10/27 02:29:33;;;;;;;;;;;;;;;15.98;53.21;101795.06;5043926;28;96592;-87
2021/10/27 02:32:01;;;;;;;;;;;;;;;15.97;53.20;101788.00;5028077;28;98302;-87
2021/10/27 02:34:28;;;;;;;;;;;;;;;15.99;53.46;101794.13;5035526;28;99975;-87
2021/10/27 02:36:55;;;;;;;;;;;;;;;15.87;53.60;101791.97;5036311;28;96792;-86
2021/10/27 02:39:23;;;;;;;;;;;;;;;15.91;53.77;101793.59;5043554;28;96482;-87
2021/10/27 02:41:51;;;;;;;;;;;;;;;15.96;53.53;101794.25;5027610;28;96924;-87
2021/10/27 02:44:19;;;;;;;;;;;;;;;15.88;53.56;101791.06;5020204;28;98875;-87
2021/10/27 02:46:55;;;;;;;;;;;;;;;16.00;53.21;101793.22;5027640;28;96647;-88
2021/10/27 02:57:31;;;;;;;;;;;;;;;15.82;53.66;101800.16;5024449;28;96864;-86
2021/10/27 02:59:58;;;;;;;;;;;;;;;15.99;53.30;101799.47;5019170;28;96969;-86
2021/10/27 03:02:26;;;;;;;;;;;;;;;15.90;53.25;101802.50;5029146;28;99572;-88
2021/10/27 03:04:54;;;;;;;;;;;;;;;16.04;53.17;101802.81;5030148;28;102070;-88
2021/10/27 03:07:22;;;;;;;;;;;;;;;16.11;52.77;101806.97;5028541;28;96858;-88
2021/10/27 03:09:49;;;;;;;;;;;;;;;15.90;53.35;101807.84;5022439;28;97305;-88
2021/10/27 03:12:15;;;;;;;;;;;;;;;16.02;53.26;101806.47;5032422;28;99026;-87
2021/10/27 03:14:47;;;;;;;;;;;;;;;15.84;53.63;101811.63;5030711;28;98433;-88
2021/10/27 03:17:17;;;;;;;;;;;;;;;15.88;53.66;101809.72;5035932;28;98109;-87
2021/10/27 03:19:45;;;;;;;;;;;;;;;16.02;53.41;101810.00;5040470;27;97007;-88
2021/10/27 03:22:15;;;;;;;;;;;;;;;15.88;53.39;101807.06;5022403;27;97570;-85
2021/10/27 03:24:42;;;;;;;;;;;;;;;15.87;53.59;101797.31;5035744;27;99173;-87
2021/10/27 03:27:12;;;;;;;;;;;;;;;16.10;52.95;101812.34;5038311;27;96629;-88
2021/10/27 03:29:41;;;;;;;;;;;;;;;15.92;53.57;101805.97;5014074;28;96802;-88
2021/10/27 03:32:23;;;;;;;;;;;;;;;15.97;53.19;101808.44;5031091;28;101060;-87
2021/10/27 03:34:52;;;;;;;;;;;;;;;15.73;53.82;101810.31;5029364;28;99553;-89
2021/10/27 03:39:59;;;;;;;;;;;;;;;15.95;53.67;101811.16;5025608;28;96991;-87
2021/10/27 03:42:31;;;;;;;;;;;;;;;16.15;52.67;101816.56;5040294;28;101333;-88
2021/10/27 03:44:58;;;;;;;;;;;;;;;15.98;53.16;101810.19;5020315;28;99799;-87
2021/10/27 03:47:25;;;;;;;;;;;;;;;15.77;53.84;101801.25;5030095;28;96704;-88
2021/10/27 03:49:59;;;;;;;;;;;;;;;15.76;53.72;101804.84;5023496;28;96850;-88
2021/10/27 03:52:26;;;;;;;;;;;;;;;16.08;52.79;101801.72;5032773;28;97888;-87
2021/10/27 03:57:45;;;;;;;;;;;;;;;15.94;53.30;101805.00;5020308;28;96621;-87
2021/10/27 04:03:01;;;;;;;;;;;;;;;15.94;53.28;101812.13;5043300;28;100234;-88
2021/10/27 04:05:39;;;;;;;;;;;;;;;15.84;53.98;101818.75;5021390;28;97272;-88
2021/10/27 04:08:06;;;;;;;;;;;;;;;16.00;53.14;101809.22;5023354;28;96811;-86
2021/10/27 04:10:33;;;;;;;;;;;;;;;15.86;53.23;101816.91;5011706;28;96839;-89
2021/10/27 04:13:11;;;;;;;;;;;;;;;15.80;53.64;101811.81;5000725;28;97160;-87
2021/10/27 04:15:41;;;;;;;;;;;;;;;15.85;53.72;101809.81;5030166;28;100194;-86
2021/10/27 04:18:11;;;;;;;;;;;;;;;15.75;53.60;101811.97;5029897;28;96692;-89
2021/10/27 04:20:50;;;;;;;;;;;;;;;15.50;54.79;101805.84;5056495;27;96661;-87
2021/10/27 04:23:18;;;;;;;;;;;;;;;15.76;53.85;101815.50;5056472;27;99506;-86
2021/10/27 04:28:34;;;;;;;;;;;;;;;15.79;53.74;101821.59;5036529;27;96374;-86
2021/10/27 04:31:09;;;;;;;;;;;;;;;15.83;53.60;101817.00;5034956;27;96571;-87
2021/10/27 04:33:37;;;;;;;;;;;;;;;15.88;53.28;101820.38;5022235;28;100616;-86
2021/10/27 04:36:13;;;;;;;;;;;;;;;15.92;53.13;101833.50;5018319;28;96728;-87
2021/10/27 04:41:20;;;;;;;;;;;;;;;15.95;53.03;101832.50;5026168;27;97543;-87
2021/10/27 04:43:49;;;;;;;;;;;;;;;15.83;53.68;101833.00;5015757;28;99781;-85
2021/10/27 04:46:21;;;;;;;;;;;;;;;16.08;52.52;101828.41;5012757;28;96952;-85
2021/10/27 04:48:48;;;;;;;;;;;;;;;15.85;53.34;101825.81;5042416;28;96831;-86
2021/10/27 04:51:16;;;;;;;;;;;;;;;15.85;53.16;101829.34;5025654;28;97051;-85
2021/10/27 04:53:45;;;;;;;;;;;;;;;15.94;52.88;101829.00;5027857;28;98113;-86
2021/10/27 04:56:12;;;;;;;;;;;;;;;15.92;53.08;101825.50;5033371;28;98076;-87
2021/10/27 04:58:41;;;;;;;;;;;;;;;16.09;52.55;101824.81;5020385;28;96797;-87
2021/10/27 05:01:15;;;;;;;;;;;;;;;16.07;52.54;101834.69;5022776;28;96793;-89
2021/10/27 05:06:40;;;;;;;;;;;;;;;15.44;54.34;101828.28;5021940;28;98501;-88
2021/10/27 05:09:21;;;;;;;;;;;;;;;15.81;53.42;101824.22;5047885;28;96927;-89
2021/10/27 05:11:52;;;;;;;;;;;;;;;15.73;53.61;101828.97;5021463;28;96829;-88
2021/10/27 05:14:24;;;;;;;;;;;;;;;15.95;52.89;101812.03;5028420;28;100878;-88
2021/10/27 05:16:53;;;;;;;;;;;;;;;15.48;54.51;101810.41;5016350;28;98852;-88
2021/10/27 05:19:21;;;;;;;;;;;;;;;15.85;53.44;101817.81;5029897;28;96714;-89
2021/10/27 05:21:52;;;;;;;;;;;;;;;16.07;52.65;101816.03;5033330;28;96722;-88
2021/10/27 05:29:50;;;;;;;;;;;;;;;16.06;52.70;101818.75;5026462;28;96643;-88
2021/10/27 05:49:15;;;;;;;;;;;;;;;15.84;53.46;101829.41;5033010;27;96844;-85
2021/10/27 05:57:12;;;;;;;;;;;;;;;15.88;53.26;101831.88;5026944;28;96830;-87
2021/10/27 06:05:04;;;;;;;;;;;;;;;15.51;54.22;101843.09;5030654;28;96718;-87
2021/10/27 06:15:35;;;;;;;;;;;;;;;16.05;53.01;101859.66;5042063;28;96736;-89
2021/10/27 06:18:23;;;;;;;;;;;;;;;16.17;52.38;101864.50;5036009;28;96903;-87
2021/10/27 06:24:04;;;;;;;;;;;;;;;16.09;52.71;101869.25;5031836;28;97257;-87
2021/10/27 06:26:50;;;;;;;;;;;;;;;16.09;53.09;101872.81;5036657;28;96833;-84
2021/10/27 06:29:35;;;;;;;;;;;;;;;16.19;52.47;101879.50;5031890;28;99857;-87
2021/10/27 06:34:50;;;;;;;;;;;;;;;16.31;52.30;101872.81;5022989;28;96652;-83
2021/10/27 06:48:13;;;;;;;;;;;;;;;16.37;52.31;101877.88;5026421;28;98534;-86
2021/10/27 06:50:40;;;;;;;;;;;;;;;16.33;52.14;101882.47;5030299;28;101595;-86
2021/10/27 06:53:07;;;;;;;;;;;;;;;16.49;51.85;101887.16;5031398;28;98238;-88
2021/10/27 06:55:37;;;;;;;;;;;;;;;16.44;51.98;101886.50;5033833;28;96657;-88
2021/10/27 06:58:05;;;;;;;;;;;;;;;16.51;51.77;101885.31;5034728;28;96698;-88
2021/10/27 07:00:38;;;;;;;;;;;;;;;16.61;51.38;101884.00;5035294;28;99134;-87
2021/10/27 07:03:30;;;;;;;;;;;;;;;16.52;51.56;101884.38;5012521;28;98328;-86
2021/10/27 07:17:01;;;;;;;;;;;;;;;16.83;51.04;101884.81;5028511;28;96724;-86
2021/10/27 07:19:28;;;;;;;;;;;;;;;16.84;51.05;101886.56;5034793;28;96658;-85
2021/10/27 07:22:06;;;;;;;;;;;;;;;16.78;51.16;101894.84;5029018;28;97798;-86
2021/10/27 07:30:14;;;;;;;;;;;;;;;16.82;51.13;101903.56;5110046;22;100481;-85
2021/10/27 07:32:52;;;;;;;;;;;;;;;16.94;50.96;101895.03;5020381;27;97841;-85
2021/10/27 07:35:25;;;;;;;;;;;;;;;17.01;50.32;101900.03;5021986;28;100353;-85
2021/10/27 07:43:42;;;;;;;;;;;;;;;17.01;50.87;101900.03;5013831;28;98590;-84
2021/10/27 07:46:17;;;;;;;;;;;;;;;17.01;50.67;101901.84;5031020;28;97954;-86
2021/10/27 07:48:44;;;;;;;;;;;;;;;16.92;50.69;101900.47;5016102;28;96838;-86
2021/10/27 07:53:53;;;;;;;;;;;;;;;17.01;50.81;101913.38;5034672;28;100702;-85
2021/10/27 07:59:06;;;;;;;;;;;;;;;17.17;50.82;101916.25;5033718;28;108777;-84
2021/10/27 08:04:13;;;;;;;;;;;;;;;17.57;49.76;101917.13;5034258;28;98518;-85
2021/10/27 08:06:45;;;;;;;;;;;;;;;17.72;49.07;101914.63;5028817;28;98291;-86
2021/10/27 08:11:55;;;;;;;;;;;;;;;17.87;49.10;101911.25;5019462;28;96601;-85
2021/10/27 08:14:31;;;;;;;;;;;;;;;17.85;48.90;101914.94;5020857;28;101771;-85
2021/10/27 08:19:41;;;;;;;;;;;;;;;18.24;48.49;101917.50;5019621;28;97273;-87
2021/10/27 08:22:12;;;;;;;;;;;;;;;18.32;48.13;101915.31;5018978;28;97002;-86
2021/10/27 08:27:37;;;;;;;;;;;;;;;18.14;48.29;101903.69;5025400;28;98819;-87
2021/10/27 08:30:09;;;;;;;;;;;;;;;18.21;48.71;101909.63;5019632;28;97364;-87
2021/10/27 08:32:45;;;;;;;;;;;;;;;18.13;49.01;101904.63;5021876;28;96665;-86
2021/10/27 08:35:20;;;;;;;;;;;;;;;18.02;49.31;101906.09;5004862;28;98203;-86
2021/10/27 08:40:30;;;;;;;;;;;;;;;18.37;48.83;101918.63;5019898;28;96725;-86
2021/10/27 08:43:00;;;;;;;;;;;;;;;18.64;48.05;101919.94;5023592;28;97139;-85
2021/10/27 08:45:29;;;;;;;;;;;;;;;18.42;49.19;101918.41;5021450;28;99153;-84
2021/10/27 08:48:06;;;;;;;;;;;;;;;18.47;48.76;101919.91;5022303;28;99184;-84
2021/10/27 08:50:35;;;;;;;;;;;;;;;18.09;49.33;101912.91;5024577;28;96607;-84
2021/10/27 08:53:14;;;;;;;;;;;;;;;18.46;48.60;101920.84;5012905;28;96835;-85
2021/10/27 08:55:47;;;;;;;;;;;;;;;18.74;48.27;101930.19;5021940;28;98974;-84
2021/10/27 08:58:21;;;;;;;;;;;;;;;18.79;48.10;101922.78;5020719;28;100274;-86
2021/10/27 09:01:00;;;;;;;;;;;;;;;19.03;47.48;101937.63;5028359;28;96862;-85
2021/10/27 09:03:38;;;;;;;;;;;;;;;18.91;47.75;101938.22;5019667;28;96809;-85
2021/10/27 09:06:22;;;;;;;;;;;;;;;18.74;48.47;101931.06;5017089;28;99694;-85
2021/10/27 09:15:11;;;;;;;;;;;;;;;18.39;49.41;101934.59;4963849;28;96679;-85
2021/10/27 09:35:08;;;;;;;;;;;;;;;19.15;47.97;101954.88;4995751;28;96697;-84
2021/10/27 09:37:55;;;;;;;;;;;;;;;19.35;47.73;101955.56;5014379;28;96757;-84
2021/10/27 09:46:21;;;;;;;;;;;;;;;18.93;48.59;101961.31;5001431;28;96713;-84
2021/10/27 10:05:21;;;;;;;;;;;;;;;18.77;49.45;101978.25;5013031;28;96738;-83
2021/10/27 10:07:51;;;;;;;;;;;;;;;18.86;48.80;101980.44;5015442;28;96596;-81
2021/10/27 10:10:18;;;;;;;;;;;;;;;19.14;47.97;101983.47;5018303;28;96669;-81
2021/10/27 10:12:46;;;;;;;;;;;;;;;19.31;47.97;101987.94;5018861;28;97801;-83
2021/10/27 10:15:20;;;;;;;;;;;;;;;19.06;48.68;101985.66;5019461;28;99769;-82
2021/10/27 10:17:50;;;;;;;;;;;;;;;19.19;47.64;101986.75;5011080;28;96797;-84
2021/10/27 10:26:32;;;;;;;;;;;;;;;19.44;46.98;101991.69;5001560;28;98360;-86
2021/10/27 10:37:50;;;;;;;;;;;;;;;18.75;48.90;101991.72;5029832;28;96367;-84
2021/10/27 10:40:40;;;;;;;;;;;;;;;19.13;48.32;101988.91;5032559;28;96683;-84
2021/10/27 10:57:27;;;;;;;;;;;;;;;19.39;48.26;101994.63;5035916;28;96629;-86
2021/10/27 11:00:31;;;;;;;;;;;;;;;19.55;47.90;101993.88;5024226;28;98272;-86
2021/10/27 11:25:57;;;;;;;;;;;;;;;19.59;48.17;101985.56;5012530;28;96759;-84
2021/10/27 11:42:37;;;;;;;;;;;;;;;19.52;48.54;101967.22;5006872;28;98920;-84
2021/10/27 11:45:16;;;;;;;;;;;;;;;19.74;47.81;101970.47;5008742;28;99272;-83
2021/10/27 11:47:45;;;;;;;;;;;;;;;19.70;47.79;101963.53;5010776;28;98996;-83
2021/10/27 11:50:13;;;;;;;;;;;;;;;19.80;47.75;101957.59;5016604;28;97539;-83
2021/10/27 11:52:42;;;;;;;;;;;;;;;19.55;48.07;101967.06;5013388;28;98276;-82
2021/10/27 11:55:13;;;;;;;;;;;;;;;19.80;47.56;101967.47;5020363;28;98134;-83
2021/10/27 11:57:41;;;;;;;;;;;;;;;19.81;47.67;101959.34;5017150;28;97498;-82
2021/10/27 12:00:10;;;;;;;;;;;;;;;19.82;47.54;101963.72;5007122;28;96547;-84
2021/10/27 12:02:52;;;;;;;;;;;;;;;19.33;48.98;101960.13;5031177;28;98287;-84
2021/10/27 12:05:42;;;;;;;;;;;;;;;19.71;48.02;101962.59;5040250;28;98062;-82
2021/10/27 12:08:34;;;;;;;;;;;;;;;19.65;48.13;101961.09;5028533;28;96691;-83
2021/10/27 12:13:57;;;;;;;;;;;;;;;19.31;49.38;101953.09;5017643;28;99154;-85
2021/10/27 12:19:17;;;;;;;;;;;;;;;19.49;48.68;101949.50;5032863;28;96465;-84
2021/10/27 12:21:48;;;;;;;;;;;;;;;19.34;48.90;101944.91;5024165;28;96551;-84
2021/10/27 12:24:16;;;;;;;;;;;;;;;19.33;49.03;101949.41;5033883;28;99274;-84
2021/10/27 12:26:45;;;;;;;;;;;;;;;19.37;48.81;101945.59;5020322;28;100070;-83
2021/10/27 12:29:15;;;;;;;;;;;;;;;19.47;48.78;101946.88;5032695;28;96560;-84
2021/10/27 12:34:26;;;;;;;;;;;;;;;19.63;48.32;101929.94;5039193;27;98965;-82
2021/10/27 12:36:54;;;;;;;;;;;;;;;19.47;48.41;101933.47;5024308;28;100665;-83
2021/10/27 12:39:25;;;;;;;;;;;;;;;19.16;49.62;101937.84;5025816;27;98731;-83
2021/10/27 12:44:48;;;;;;;;;;;;;;;19.28;49.35;101937.19;5021806;28;98699;-82
2021/10/27 12:47:17;;;;;;;;;;;;;;;19.19;49.36;101927.81;5025138;27;96599;-83
2021/10/27 12:49:45;;;;;;;;;;;;;;;19.31;49.39;101927.16;5025009;28;96677;-83
2021/10/27 12:52:37;;;;;;;;;;;;;;;19.30;49.30;101930.78;5031915;27;96577;-83
2021/10/27 12:55:18;;;;;;;;;;;;;;;19.38;49.41;101933.06;5005642;28;96810;-83
2021/10/27 12:58:01;;;;;;;;;;;;;;;19.48;49.04;101927.19;5016555;28;99557;-83
2021/10/27 13:00:39;;;;;;;;;;;;;;;19.42;49.08;101924.78;5018419;28;96908;-83
2021/10/27 13:03:20;;;;;;;;;;;;;;;19.21;49.61;101925.94;5026752;27;96981;-86
2021/10/27 13:05:51;;;;;;;;;;;;;;;19.41;49.33;101933.78;5029894;28;99466;-85
2021/10/27 13:08:49;;;;;;;;;;;;;;;19.29;49.48;101934.44;5035176;28;100367;-82
2021/10/27 13:11:33;;;;;;;;;;;;;;;19.37;49.05;101928.66;5032943;28;96737;-84
2021/10/27 13:14:10;;;;;;;;;;;;;;;19.37;49.24;101940.22;5033489;28;95908;-83
2021/10/27 13:22:22;;;;;;;;;;;;;;;19.14;50.24;101929.88;5040804;28;97315;-83
2021/10/27 13:30:23;;;;;;;;;;;;;;;19.31;49.58;101937.88;5002377;28;97728;-83
2021/10/27 13:32:53;;;;;;;;;;;;;;;19.33;49.61;101925.28;5028641;28;96815;-83
2021/10/27 13:35:21;;;;;;;;;;;;;;;19.32;49.66;101931.59;5021506;28;96861;-83
2021/10/27 13:37:48;;;;;;;;;;;;;;;19.30;50.03;101924.56;5021766;28;101243;-84
2021/10/27 13:40:15;;;;;;;;;;;;;;;19.35;49.48;101922.53;5014104;28;100074;-84
2021/10/27 13:48:38;;;;;;;;;;;;;;;19.19;50.32;101917.09;5023856;28;98961;-82
2021/10/27 15:28:53;;;;;;;;;;;;;;;19.07;51.72;101921.28;4960811;28;97547;-81
2021/10/27 15:31:33;;;;;;;;;;;;;;;19.03;51.79;101932.25;4959186;28;100635;-83
2021/10/27 15:51:15;;;;;;;;;;;;;;;19.04;51.97;101936.66;4971697;28;96780;-82
2021/10/27 15:53:52;;;;;;;;;;;;;;;;;;;;;
2021/10/27 15:59:11;;;;;;;;;;;;;;;18.93;52.43;101931.00;4968369;28;97404;-84
2021/10/27 16:01:41;;;;;;;;;;;;;;;19.03;51.88;101926.91;4964488;28;96926;-84
2021/10/27 16:04:16;;;;;;;;;;;;;;;19.20;51.65;101934.03;4959565;28;99613;-84
2021/10/27 16:06:49;;;;;;;;;;;;;;;18.97;52.20;101935.25;4956393;28;97788;-84
2021/10/27 16:09:17;;;;;;;;;;;;;;;19.15;52.01;101936.97;4969731;28;96752;-84
2021/10/27 16:14:28;;;;;;;;;;;;;;;19.09;51.56;101942.66;4959022;28;97345;-84
2021/10/27 16:16:57;;;;;;;;;;;;;;;19.13;52.16;101938.84;4962021;28;100325;-82
2021/10/27 16:19:27;;;;;;;;;;;;;;;18.81;52.83;101937.84;4963776;28;97295;-84
2021/10/27 16:21:56;;;;;;;;;;;;;;;18.88;52.28;101939.28;4963441;28;97169;-85
2021/10/27 16:24:33;;;;;;;;;;;;;;;18.95;52.73;101945.19;4966022;28;101086;-83
2021/10/27 16:27:00;;;;;;;;;;;;;;;19.15;51.88;101939.66;4985382;28;101213;-82
2021/10/27 16:32:34;;;;;;;;;;;;;;;19.01;52.53;101947.53;4952675;28;97239;-84
2021/10/27 16:49:52;;;;;;;;;;;;;;;18.96;52.45;101941.56;5015362;28;96702;-86
2021/10/27 16:55:24;;;;;;;;;;;;;;;18.95;52.79;101943.38;5004800;27;96464;-84
2021/10/27 16:57:57;;;;;;;;;;;;;;;19.02;52.67;101946.59;5015011;28;99889;-83
2021/10/27 17:00:25;;;;;;;;;;;;;;;19.04;52.61;101955.41;4991945;28;97318;-83
2021/10/27 17:02:54;;;;;;;;;;;;;;;19.05;52.39;101947.28;5013486;28;96960;-82
2021/10/27 17:05:37;;;;;;;;;;;;;;;18.93;52.58;101949.75;5015648;28;100258;-82
2021/10/27 17:10:53;;;;;;;;;;;;;;;18.89;52.86;101954.41;5008569;28;96861;-82
2021/10/27 17:13:36;;;;;;;;;;;;;;;18.94;52.83;101944.31;5006577;28;96789;-83
2021/10/27 17:16:03;;;;;;;;;;;;;;;18.83;53.04;101952.03;4992727;28;101192;-84
2021/10/27 17:18:32;;;;;;;;;;;;;;;18.82;52.84;101954.78;5006716;28;100561;-84
2021/10/27 17:21:00;;;;;;;;;;;;;;;19.05;52.49;101954.47;5016613;28;97009;-81
2021/10/27 17:23:30;;;;;;;;;;;;;;;18.99;52.42;101954.78;5007404;28;96792;-85
2021/10/27 17:25:59;;;;;;;;;;;;;;;18.91;52.94;101959.66;4999978;28;97773;-81
2021/10/27 17:28:26;;;;;;;;;;;;;;;19.00;52.72;101964.56;4996588;28;98146;-83
2021/10/27 17:30:53;;;;;;;;;;;;;;;18.90;52.95;101961.50;5003639;28;96850;-83
2021/10/27 17:33:23;;;;;;;;;;;;;;;18.48;54.07;101961.78;5000118;28;96930;-83
2021/10/27 17:36:01;;;;;;;;;;;;;;;18.68;53.38;101964.38;5009069;28;102073;-83
2021/10/27 17:38:28;;;;;;;;;;;;;;;18.80;53.14;101962.03;4986551;28;98998;-83
2021/10/27 17:41:07;;;;;;;;;;;;;;;18.84;52.92;101963.63;4999940;28;96793;-82
2021/10/27 17:43:37;;;;;;;;;;;;;;;18.99;52.33;101962.81;4993773;28;97479;-81
2021/10/27 17:48:51;;;;;;;;;;;;;;;18.81;52.93;101969.13;4970864;28;96870;-84
2021/10/27 17:51:24;;;;;;;;;;;;;;;18.83;52.67;101969.91;4998083;28;96832;-82
2021/10/27 17:59:24;;;;;;;;;;;;;;;18.68;53.02;101974.22;4939620;28;97687;-82
2021/10/27 18:01:50;;;;;;;;;;;;;;;18.84;52.32;101971.66;4978082;28;96939;-83
2021/10/27 18:04:21;;;;;;;;;;;;;;;19.01;51.97;101968.97;4982177;28;96816;-81
2021/10/27 18:06:58;;;;;;;;;;;;;;;18.64;52.61;101970.81;4981435;28;100302;-81
2021/10/27 18:09:56;;;;;;;;;;;;;;;18.79;52.47;101973.66;4987492;28;99750;-81
2021/10/27 18:12:25;;;;;;;;;;;;;;;18.82;52.54;101968.16;4986020;28;96683;-81
2021/10/27 18:17:37;;;;;;;;;;;;;;;18.73;52.72;101966.81;4954224;28;97368;-84
2021/10/27 18:20:09;;;;;;;;;;;;;;;18.82;52.25;101963.69;4984934;28;99238;-84
2021/10/27 18:25:50;;;;;;;;;;;;;;;18.68;52.87;101961.69;4992526;28;96600;-83
2021/10/27 18:28:34;;;;;;;;;;;;;;;18.79;52.69;101962.97;4993051;28;99682;-81
2021/10/27 18:36:43;;;;;;;;;;;;;;;18.55;52.71;101960.56;4985792;28;96674;-82
2021/10/27 18:39:19;;;;;;;;;;;;;;;18.62;52.66;101964.69;4988281;28;97809;-82
2021/10/27 18:41:53;;;;;;;;;;;;;;;18.64;52.61;101962.78;4985149;28;97969;-82
2021/10/27 18:44:20;;;;;;;;;;;;;;;18.45;53.02;101958.38;4987431;28;96782;-80
2021/10/27 18:46:50;;;;;;;;;;;;;;;18.39;53.02;101967.56;4983596;28;96690;-81
2021/10/27 18:49:17;;;;;;;;;;;;;;;18.59;52.61;101969.31;4979982;28;102365;-82
2021/10/27 18:51:53;;;;;;;;;;;;;;;18.63;52.29;101962.88;4976612;28;99833;-81
2021/10/27 18:54:33;;;;;;;;;;;;;;;18.60;52.43;101966.56;4977823;28;96882;-80
2021/10/27 19:00:11;;;;;;;;;;;;;;;18.55;52.69;101965.94;5038638;28;96570;-83
2021/10/27 19:02:44;;;;;;;;;;;;;;;18.50;52.61;101964.41;5026703;27;96864;-81
2021/10/27 19:10:59;;;;;;;;;;;;;;;18.89;51.44;101972.28;4993251;27;98730;-81
2021/10/27 19:13:42;;;;;;;;;;;;;;;18.79;51.52;101973.66;5031863;28;98010;-82
2021/10/27 19:16:10;;;;;;;;;;;;;;;18.78;51.74;101969.25;5035315;27;98947;-82
2021/10/27 19:18:37;;;;;;;;;;;;;;;18.44;52.50;101975.41;5045863;28;101272;-80
2021/10/27 19:21:04;;;;;;;;;;;;;;;18.47;52.42;101981.47;5041855;27;97743;-82
2021/10/27 19:23:31;;;;;;;;;;;;;;;18.54;52.22;101971.31;5039108;28;96946;-83
2021/10/27 19:26:04;;;;;;;;;;;;;;;18.78;51.64;101974.59;5029540;28;98204;-82
2021/10/27 19:28:47;;;;;;;;;;;;;;;18.54;51.69;101976.69;5028564;28;101027;-81
2021/10/27 20:07:32;;;;;;;;;;;;;;;18.78;51.59;101980.84;5023122;28;98674;-81
2021/10/27 20:10:09;;;;;;;;;;;;;;;18.81;51.34;101985.19;5022777;28;100425;-81
2021/10/27 20:29:12;;;;;;;;;;;;;;;18.66;51.24;101976.97;5010003;28;97030;-82
2021/10/27 20:51:11;;;;;;;;;;;;;;;18.62;51.62;101977.19;5013761;28;98650;-80
2021/10/27 20:53:44;;;;;;;;;;;;;;;18.69;51.21;101979.50;5015050;28;97864;-81
2021/10/27 20:56:14;;;;;;;;;;;;;;;18.69;51.04;101979.50;5014420;28;98131;-82
2021/10/27 20:58:47;;;;;;;;;;;;;;;18.71;50.96;101976.72;5013867;28;97640;-81
2021/10/27 21:01:19;;;;;;;;;;;;;;;18.63;51.46;101977.13;5024634;28;96882;-80
2021/10/27 21:04:18;;;;;;;;;;;;;;;18.64;51.30;101981.50;5024883;28;100026;-81
2021/10/27 21:15:02;;;;;;;;;;;;;;;18.57;51.29;101977.44;5006531;28;97418;-80
2021/10/27 21:17:29;;;;;;;;;;;;;;;18.61;51.01;101979.00;5016905;28;100852;-81
2021/10/27 21:19:56;;;;;;;;;;;;;;;18.54;51.28;101966.84;5018066;28;97738;-81
2021/10/27 21:22:22;;;;;;;;;;;;;;;18.48;51.37;101977.84;5014049;28;96818;-81
2021/10/27 21:24:53;;;;;;;;;;;;;;;18.63;50.89;101974.47;5008645;28;98557;-80
2021/10/27 21:27:26;;;;;;;;;;;;;;;18.61;51.21;101973.66;5010422;28;97865;-82
2021/10/27 21:30:06;;;;;;;;;;;;;;;18.74;50.29;101973.03;5013490;28;97412;-82
2021/10/27 21:43:42;;;;;;;;;;;;;;;18.77;50.11;101988.97;5027260;27;96825;-80
2021/10/27 21:51:42;;;;;;;;;;;;;;;18.50;50.82;101984.00;5038365;28;96387;-82
2021/10/27 21:54:09;;;;;;;;;;;;;;;18.57;50.76;101982.78;5024362;27;97541;-82
2021/10/27 21:56:54;;;;;;;;;;;;;;;18.68;50.28;101980.44;5024420;28;100107;-80
2021/10/27 21:59:23;;;;;;;;;;;;;;;18.58;50.66;101978.28;5025574;28;98727;-80
2021/10/27 22:01:53;;;;;;;;;;;;;;;18.66;50.27;101982.31;5019735;28;96678;-81
2021/10/27 22:04:22;;;;;;;;;;;;;;;18.49;50.70;101982.25;5024401;28;96582;-80